createdAt,value
2023-09-26T00:01:27.903Z,99.90
2023-09-26T00:03:55.460Z,99.90
2023-09-26T00:06:23.780Z,99.90
2023-09-26T00:08:51.372Z,99.90
2023-09-26T00:11:18.945Z,99.90
2023-09-26T00:13:47.502Z,99.90
2023-09-26T00:16:15.170Z,99.90
2023-09-26T00:18:42.713Z,99.90
2023-09-26T00:21:14.117Z,99.90
2023-09-26T00:23:41.728Z,99.90
2023-09-26T00:26:09.287Z,99.90
2023-09-26T00:28:36.918Z,99.90
2023-09-26T00:31:04.551Z,99.90
2023-09-26T00:33:32.060Z,99.90
2023-09-26T00:35:59.699Z,99.90
2023-09-26T00:38:27.336Z,99.90
2023-09-26T00:40:54.854Z,99.90
2023-09-26T00:43:22.532Z,99.90
2023-09-26T00:45:52.851Z,99.90
2023-09-26T00:48:20.309Z,99.90
2023-09-26T00:50:47.948Z,99.90
2023-09-26T00:53:15.533Z,99.90
2023-09-26T00:55:43.125Z,99.90
2023-09-26T00:58:10.760Z,99.90
2023-09-26T01:00:38.306Z,99.90
2023-09-26T01:03:07.350Z,99.90
2023-09-26T01:05:36.108Z,99.90
2023-09-26T01:08:04.501Z,99.90
2023-09-26T01:10:32.851Z,99.90
2023-09-26T01:13:00.497Z,99.90
2023-09-26T01:15:37.043Z,99.90
2023-09-26T01:18:05.449Z,99.90
2023-09-26T01:20:33.048Z,99.90
2023-09-26T01:23:00.759Z,99.90
2023-09-26T01:25:28.415Z,99.90
2023-09-26T01:27:56.736Z,99.90
2023-09-26T01:30:25.726Z,99.90
2023-09-26T01:32:54.139Z,99.90
2023-09-26T01:35:22.454Z,99.90
2023-09-26T01:37:50.015Z,99.90
2023-09-26T01:40:17.649Z,99.90
2023-09-26T01:42:45.247Z,99.90
2023-09-26T01:45:12.787Z,99.90
2023-09-26T01:47:43.998Z,99.90
2023-09-26T01:50:11.436Z,99.90
2023-09-26T01:52:39.783Z,99.90
2023-09-26T01:55:07.476Z,99.90
2023-09-26T01:57:35.005Z,99.90
2023-09-26T02:00:02.586Z,99.90
2023-09-26T02:02:30.957Z,99.90
2023-09-26T02:04:59.298Z,99.90
2023-09-26T02:07:26.938Z,99.90
2023-09-26T02:09:54.550Z,99.90
2023-09-26T02:12:22.090Z,99.90
2023-09-26T02:14:49.673Z,99.90
2023-09-26T02:17:18.061Z,99.90
2023-09-26T02:19:46.483Z,99.90
2023-09-26T02:22:14.016Z,99.90
2023-09-26T02:24:41.607Z,99.90
2023-09-26T02:27:09.159Z,99.90
2023-09-26T02:29:37.468Z,99.90
2023-09-26T02:32:05.127Z,99.90
2023-09-26T02:34:32.706Z,99.90
2023-09-26T02:37:00.255Z,99.90
2023-09-26T02:39:27.841Z,99.90
2023-09-26T02:41:56.183Z,99.90
2023-09-26T02:44:23.764Z,99.90
2023-09-26T02:46:52.233Z,99.90
2023-09-26T02:49:20.520Z,99.90
2023-09-26T02:51:48.075Z,99.90
2023-09-26T02:54:15.700Z,99.90
2023-09-26T02:56:43.346Z,99.90
2023-09-26T02:59:11.129Z,99.90
2023-09-26T03:01:38.821Z,99.90
2023-09-26T03:04:06.557Z,99.90
2023-09-26T03:06:34.008Z,99.90
2023-09-26T03:09:02.424Z,99.90
2023-09-26T03:11:29.981Z,99.90
2023-09-26T03:13:58.323Z,99.90
2023-09-26T03:16:26.161Z,99.90
2023-09-26T03:18:54.423Z,99.90
2023-09-26T03:21:21.953Z,99.90
2023-09-26T03:23:49.726Z,99.90
2023-09-26T03:26:18.421Z,99.90
2023-09-26T03:28:46.761Z,99.90
2023-09-26T03:31:14.511Z,99.90
2023-09-26T03:33:41.970Z,99.90
2023-09-26T03:36:09.535Z,99.90
2023-09-26T03:38:37.177Z,99.90
2023-09-26T03:41:04.752Z,99.90
2023-09-26T03:43:32.406Z,99.90
2023-09-26T03:46:02.959Z,99.90
2023-09-26T03:48:31.272Z,99.90
2023-09-26T03:51:11.145Z,99.90
2023-09-26T03:53:38.756Z,99.90
2023-09-26T03:56:06.341Z,99.90
2023-09-26T03:58:34.733Z,99.90
2023-09-26T04:01:14.382Z,99.90
2023-09-26T04:03:41.970Z,99.90
2023-09-26T04:06:10.264Z,99.90
2023-09-26T04:08:37.833Z,99.90
2023-09-26T04:11:05.453Z,99.90
2023-09-26T04:13:33.089Z,99.90
2023-09-26T04:16:00.699Z,99.90
2023-09-26T04:18:28.424Z,99.90
2023-09-26T04:20:55.934Z,99.90
2023-09-26T04:23:23.515Z,99.90
2023-09-26T04:25:51.905Z,99.90
2023-09-26T04:28:19.562Z,99.90
2023-09-26T04:30:47.806Z,99.90
2023-09-26T04:33:15.443Z,99.90
2023-09-26T04:35:43.026Z,99.90
2023-09-26T04:38:10.693Z,99.90
2023-09-26T04:40:39.175Z,99.90
2023-09-26T04:43:06.773Z,99.90
2023-09-26T04:45:34.311Z,99.90
2023-09-26T04:48:02.755Z,99.90
2023-09-26T04:50:30.277Z,99.90
2023-09-26T04:52:57.862Z,99.90
2023-09-26T04:55:25.655Z,99.90
2023-09-26T04:57:53.223Z,99.90
2023-09-26T05:00:21.041Z,99.90
2023-09-26T05:02:48.667Z,99.90
2023-09-26T05:05:16.216Z,99.90
2023-09-26T05:07:47.615Z,99.90
2023-09-26T05:10:16.082Z,99.90
2023-09-26T05:12:44.400Z,99.90
2023-09-26T05:15:12.023Z,99.90
2023-09-26T05:17:40.377Z,99.90
2023-09-26T05:20:08.754Z,99.90
2023-09-26T05:22:36.397Z,99.90
2023-09-26T05:25:04.783Z,99.90
2023-09-26T05:27:32.332Z,99.90
2023-09-26T05:30:00.662Z,99.90
2023-09-26T05:32:28.312Z,99.90
2023-09-26T05:34:56.630Z,99.90
2023-09-26T05:37:24.314Z,99.90
2023-09-26T05:39:51.925Z,99.90
2023-09-26T05:42:19.485Z,99.90
2023-09-26T05:44:48.524Z,99.90
2023-09-26T05:47:16.211Z,99.90
2023-09-26T05:49:43.737Z,99.90
2023-09-26T05:52:12.102Z,99.90
2023-09-26T05:54:39.723Z,99.90
2023-09-26T05:57:07.310Z,99.90
2023-09-26T05:59:34.864Z,99.90
2023-09-26T06:02:02.560Z,99.90
2023-09-26T06:04:30.587Z,99.90
2023-09-26T06:06:59.448Z,99.90
2023-09-26T06:09:27.024Z,99.90
2023-09-26T06:11:54.596Z,99.90
2023-09-26T06:14:22.219Z,99.90
2023-09-26T06:16:50.639Z,99.90
2023-09-26T06:19:18.135Z,99.90
2023-09-26T06:21:45.729Z,99.90
2023-09-26T06:24:13.462Z,99.90
2023-09-26T06:26:42.011Z,99.90
2023-09-26T06:29:09.590Z,99.90
2023-09-26T06:31:37.266Z,99.90
2023-09-26T06:34:04.750Z,99.90
2023-09-26T06:36:32.331Z,99.90
2023-09-26T06:39:02.192Z,99.90
2023-09-26T06:41:27.541Z,99.90
2023-09-26T06:43:55.851Z,99.90
2023-09-26T06:46:24.918Z,99.90
2023-09-26T06:48:52.615Z,99.90
2023-09-26T06:51:20.902Z,99.90
2023-09-26T06:53:48.507Z,99.90
2023-09-26T06:56:17.228Z,99.90
2023-09-26T06:58:44.836Z,99.90
2023-09-26T07:01:15.463Z,99.90
2023-09-26T07:03:43.089Z,99.90
2023-09-26T07:06:10.578Z,99.90
2023-09-26T07:08:38.915Z,99.90
2023-09-26T07:11:06.532Z,99.90
2023-09-26T07:13:47.915Z,99.90
2023-09-26T07:16:07.178Z,99.90
2023-09-26T07:18:34.705Z,99.90
2023-09-26T07:21:02.287Z,99.90
2023-09-26T07:23:30.638Z,99.90
2023-09-26T07:26:12.062Z,99.90
2023-09-26T07:28:39.898Z,99.90
2023-09-26T07:31:07.577Z,99.90
2023-09-26T07:33:35.093Z,99.90
2023-09-26T07:36:02.668Z,99.90
2023-09-26T07:38:30.282Z,99.90
2023-09-26T07:40:57.951Z,99.90
2023-09-26T07:43:25.588Z,99.90
2023-09-26T07:45:53.134Z,99.90
2023-09-26T07:48:20.929Z,99.90
2023-09-26T07:50:48.556Z,99.90
2023-09-26T07:53:16.898Z,99.90
2023-09-26T07:55:44.506Z,99.90
2023-09-26T07:58:13.001Z,99.90
2023-09-26T08:00:41.317Z,99.90
2023-09-26T08:03:09.682Z,99.90
2023-09-26T08:05:36.509Z,99.90
2023-09-26T08:08:04.071Z,99.90
2023-09-26T08:10:34.365Z,99.90
2023-09-26T08:13:01.992Z,99.90
2023-09-26T08:15:29.504Z,99.90
2023-09-26T08:17:57.154Z,99.90
2023-09-26T08:20:24.698Z,99.90
2023-09-26T08:22:53.060Z,99.90
2023-09-26T08:25:21.455Z,99.90
2023-09-26T08:27:49.801Z,99.90
2023-09-26T08:30:17.366Z,99.90
2023-09-26T08:32:45.160Z,99.90
2023-09-26T08:35:12.713Z,99.90
2023-09-26T08:37:40.278Z,99.90
2023-09-26T08:40:08.066Z,99.90
2023-09-26T08:42:38.374Z,99.90
2023-09-26T08:45:06.101Z,99.90
2023-09-26T08:47:33.731Z,99.90
2023-09-26T08:50:01.337Z,99.90
2023-09-26T08:52:28.882Z,99.90
2023-09-26T08:54:56.541Z,99.90
2023-09-26T08:57:24.050Z,99.90
2023-09-26T08:59:51.633Z,99.90
2023-09-26T09:02:19.279Z,99.90
2023-09-26T09:04:47.765Z,99.90
2023-09-26T09:07:15.971Z,99.90
2023-09-26T09:10:05.271Z,99.90
2023-09-26T09:12:32.718Z,99.90
2023-09-26T09:15:01.060Z,99.90
2023-09-26T09:17:28.668Z,99.90
2023-09-26T09:19:57.200Z,99.90
2023-09-26T09:22:25.588Z,99.90
2023-09-26T09:24:56.154Z,99.90
2023-09-26T09:27:32.667Z,99.90
2023-09-26T09:30:09.120Z,99.90
2023-09-26T09:32:36.774Z,99.90
2023-09-26T09:35:05.139Z,99.90
2023-09-26T09:37:33.484Z,99.90
2023-09-26T09:40:01.099Z,99.90
2023-09-26T09:42:29.417Z,99.90
2023-09-26T09:44:56.982Z,99.90
2023-09-26T09:47:24.662Z,99.90
2023-09-26T09:49:52.202Z,99.90
2023-09-26T09:52:19.845Z,99.90
2023-09-26T09:54:48.202Z,99.90
2023-09-26T09:57:15.750Z,99.90
2023-09-26T09:59:43.338Z,99.90
2023-09-26T10:02:11.264Z,99.90
2023-09-26T10:04:38.683Z,99.90
2023-09-26T10:07:06.177Z,99.90
2023-09-26T10:09:33.785Z,99.90
2023-09-26T10:12:01.372Z,99.90
2023-09-26T10:14:30.566Z,99.90
2023-09-26T10:17:01.107Z,99.90
2023-09-26T10:19:42.313Z,99.90
2023-09-26T10:22:09.447Z,99.90
2023-09-26T10:24:36.809Z,99.90
2023-09-26T10:27:09.719Z,99.90
2023-09-26T10:29:31.988Z,99.90
2023-09-26T10:32:05.304Z,99.90
2023-09-26T10:34:53.906Z,99.90
2023-09-26T10:37:03.429Z,99.90
2023-09-26T10:39:36.480Z,99.90
2023-09-26T10:44:41.206Z,99.90
2023-09-26T10:47:08.897Z,99.90
2023-09-26T10:49:36.521Z,99.90
2023-09-26T10:52:04.090Z,99.90
2023-09-26T10:54:31.631Z,99.90
2023-09-26T10:56:59.267Z,99.90
2023-09-26T10:59:29.395Z,99.90
2023-09-26T11:01:57.136Z,99.90
2023-09-26T11:04:27.959Z,99.90
2023-09-26T11:06:58.755Z,99.90
2023-09-26T11:09:27.232Z,99.90
2023-09-26T11:11:54.845Z,99.90
2023-09-26T11:14:22.431Z,99.90
2023-09-26T11:16:50.051Z,99.90
2023-09-26T11:19:18.412Z,99.80
2023-09-26T11:21:46.783Z,99.80
2023-09-26T11:24:26.210Z,99.80
2023-09-26T11:26:53.823Z,99.30
2023-09-26T11:29:21.399Z,98.90
2023-09-26T11:31:49.080Z,98.80
2023-09-26T11:34:17.365Z,97.50
2023-09-26T11:36:44.958Z,97.20
2023-09-26T11:39:16.267Z,96.70
2023-09-26T11:41:50.875Z,96.70
2023-09-26T11:44:11.404Z,96.50
2023-09-26T11:46:41.979Z,96.50
2023-09-26T11:49:10.290Z,95.40
2023-09-26T11:51:38.054Z,95.40
2023-09-26T11:54:05.666Z,95.20
2023-09-26T11:56:33.240Z,95.00
2023-09-26T11:59:02.590Z,94.70
2023-09-26T12:01:29.297Z,93.70
2023-09-26T12:03:56.899Z,93.70
2023-09-26T12:06:24.439Z,93.50
2023-09-26T12:08:52.015Z,92.00
2023-09-26T12:11:20.397Z,92.10
2023-09-26T12:13:48.760Z,91.70
2023-09-26T12:16:16.555Z,91.70
2023-09-26T12:18:44.780Z,90.70
2023-09-26T12:21:13.085Z,90.10
2023-09-26T12:23:40.664Z,90.10
2023-09-26T12:26:09.368Z,88.70
2023-09-26T12:28:36.944Z,88.60
2023-09-26T12:31:04.506Z,87.80
2023-09-26T12:33:32.126Z,83.80
2023-09-26T12:35:59.998Z,83.60
2023-09-26T12:38:27.602Z,83.00
2023-09-26T12:40:55.236Z,83.00
2023-09-26T12:43:22.950Z,83.30
2023-09-26T12:45:50.416Z,83.20
2023-09-26T12:48:17.957Z,83.20
2023-09-26T12:50:45.592Z,82.90
2023-09-26T12:53:13.194Z,82.20
2023-09-26T12:55:40.849Z,81.00
2023-09-26T12:58:08.299Z,80.20
2023-09-26T13:00:36.031Z,79.70
2023-09-26T13:03:04.429Z,80.70
2023-09-26T13:05:32.731Z,80.70
2023-09-26T13:08:00.332Z,80.60
2023-09-26T13:10:28.974Z,80.30
2023-09-26T13:12:56.272Z,79.50
2023-09-26T13:15:23.882Z,78.80
2023-09-26T13:17:51.534Z,78.10
2023-09-26T13:20:19.821Z,77.20
2023-09-26T13:22:47.414Z,77.20
2023-09-26T13:25:14.990Z,76.80
2023-09-26T13:27:42.589Z,76.70
2023-09-26T13:30:10.234Z,75.90
2023-09-26T13:32:37.907Z,75.20
2023-09-26T13:35:06.988Z,74.90
2023-09-26T13:37:35.289Z,74.70
2023-09-26T13:40:02.883Z,74.50
2023-09-26T13:42:30.517Z,74.20
2023-09-26T13:44:58.102Z,74.00
2023-09-26T13:47:26.706Z,73.80
2023-09-26T13:49:54.294Z,73.80
2023-09-26T13:52:21.808Z,74.10
2023-09-26T13:54:50.188Z,73.70
2023-09-26T13:57:17.751Z,73.70
2023-09-26T13:59:45.334Z,73.50
2023-09-26T14:02:13.017Z,73.00
2023-09-26T14:04:58.160Z,71.70
2023-09-26T14:07:08.940Z,71.60
2023-09-26T14:09:36.533Z,70.60
2023-09-26T14:12:04.086Z,69.70
2023-09-26T14:14:32.079Z,69.80
2023-09-26T14:16:59.602Z,69.00
2023-09-26T14:19:27.903Z,67.90
2023-09-26T14:21:55.483Z,67.80
2023-09-26T14:24:23.118Z,67.40
2023-09-26T14:26:50.689Z,67.40
2023-09-26T14:29:18.328Z,67.50
2023-09-26T14:31:45.908Z,66.40
2023-09-26T14:34:13.577Z,66.10
2023-09-26T14:36:41.043Z,66.30
2023-09-26T14:39:11.728Z,65.00
2023-09-26T14:41:39.592Z,65.00
2023-09-26T14:44:07.263Z,64.30
2023-09-26T14:46:35.025Z,64.90
2023-09-26T14:49:02.504Z,63.90
2023-09-26T14:51:31.295Z,64.70
2023-09-26T14:53:57.785Z,65.00
2023-09-26T14:56:25.383Z,65.40
2023-09-26T14:58:52.991Z,65.80
2023-09-26T15:01:20.578Z,66.10
2023-09-26T15:03:48.192Z,65.70
2023-09-26T15:06:15.812Z,64.30
2023-09-26T15:08:44.139Z,62.90
2023-09-26T15:11:11.707Z,62.90
2023-09-26T15:13:39.280Z,62.70
2023-09-26T15:16:09.249Z,62.90
2023-09-26T15:18:36.704Z,63.80
2023-09-26T15:21:04.309Z,64.80
2023-09-26T15:23:31.924Z,67.00
2023-09-26T15:26:00.327Z,67.10
2023-09-26T15:28:27.862Z,67.00
2023-09-26T15:30:58.094Z,68.10
2023-09-26T15:33:26.517Z,68.70
2023-09-26T15:35:54.098Z,68.60
2023-09-26T15:38:23.473Z,69.90
2023-09-26T15:40:50.049Z,71.30
2023-09-26T15:43:17.611Z,71.30
2023-09-26T15:45:45.263Z,71.80
2023-09-26T15:48:13.187Z,72.50
2023-09-26T15:50:40.836Z,73.70
2023-09-26T15:53:08.439Z,74.90
2023-09-26T15:55:37.868Z,75.90
2023-09-26T15:58:05.419Z,76.90
2023-09-26T16:00:33.048Z,77.90
2023-09-26T16:03:00.708Z,78.90
2023-09-26T16:05:28.191Z,81.10
2023-09-26T16:07:56.375Z,80.40
2023-09-26T16:10:23.906Z,79.50
2023-09-26T16:13:06.830Z,79.50
2023-09-26T16:15:19.147Z,80.20
2023-09-26T16:17:46.716Z,81.60
2023-09-26T16:20:14.315Z,81.90
2023-09-26T16:22:42.711Z,83.50
2023-09-26T16:25:10.335Z,82.80
2023-09-26T16:27:38.673Z,84.90
2023-09-26T16:30:06.506Z,84.90
2023-09-26T16:32:34.225Z,85.70
2023-09-26T16:35:01.731Z,86.60
2023-09-26T16:37:30.068Z,88.00
2023-09-26T16:39:58.589Z,88.80
2023-09-26T16:42:28.076Z,88.80
2023-09-26T16:44:55.710Z,89.80
2023-09-26T16:47:23.286Z,90.30
2023-09-26T16:49:51.840Z,91.20
2023-09-26T16:52:19.467Z,91.20
2023-09-26T16:54:47.043Z,91.50
2023-09-26T16:57:16.160Z,91.80
2023-09-26T16:59:43.778Z,91.80
2023-09-26T17:02:11.489Z,91.90
2023-09-26T17:04:40.687Z,91.90
2023-09-26T17:07:08.331Z,92.20
2023-09-26T17:09:35.967Z,92.50
2023-09-26T17:12:03.543Z,92.70
2023-09-26T17:14:31.140Z,92.90
2023-09-26T17:17:01.580Z,93.50
2023-09-26T17:19:27.383Z,93.50
2023-09-26T17:21:55.805Z,93.90
2023-09-26T17:24:23.374Z,93.90
2023-09-26T17:26:50.963Z,94.20
2023-09-26T17:29:18.646Z,94.40
2023-09-26T17:31:48.550Z,94.70
2023-09-26T17:34:14.053Z,95.00
2023-09-26T17:36:41.672Z,95.30
2023-09-26T17:39:09.383Z,95.70
2023-09-26T17:41:36.969Z,96.00
2023-09-26T17:44:04.720Z,96.30
2023-09-26T17:46:33.055Z,97.00
2023-09-26T17:49:01.351Z,97.00
2023-09-26T17:51:28.810Z,97.00
2023-09-26T17:53:56.400Z,97.20
2023-09-26T17:56:24.014Z,97.50
2023-09-26T17:58:52.626Z,97.80
2023-09-26T18:01:22.121Z,98.10
2023-09-26T18:03:49.691Z,98.30
2023-09-26T18:06:17.359Z,98.50
2023-09-26T18:08:44.937Z,98.70
2023-09-26T18:11:12.605Z,99.00
2023-09-26T18:13:40.168Z,99.20
2023-09-26T18:16:08.506Z,99.70
2023-09-26T18:18:36.059Z,99.60
2023-09-26T18:21:03.770Z,99.90
2023-09-26T18:23:31.271Z,99.90
2023-09-26T18:25:58.884Z,99.90
2023-09-26T18:28:26.447Z,99.90
2023-09-26T18:30:54.022Z,99.90
2023-09-26T18:33:21.606Z,99.90
2023-09-26T18:35:49.208Z,99.90
2023-09-26T18:38:16.806Z,99.90
2023-09-26T18:40:44.383Z,99.90
2023-09-26T18:43:11.999Z,99.90
2023-09-26T18:45:42.580Z,99.90
2023-09-26T18:48:10.109Z,99.90
2023-09-26T18:50:38.422Z,99.90
2023-09-26T18:53:06.096Z,99.90
2023-09-26T18:55:33.627Z,99.90
2023-09-26T18:58:03.293Z,99.90
2023-09-26T19:00:30.867Z,99.90
2023-09-26T19:03:07.428Z,99.90
2023-09-26T19:05:34.858Z,99.90
2023-09-26T19:08:02.422Z,99.90
2023-09-26T19:10:29.970Z,99.90
2023-09-26T19:12:58.353Z,99.90
2023-09-26T19:15:29.617Z,99.90
2023-09-26T19:17:57.215Z,99.90
2023-09-26T19:20:27.490Z,99.90
2023-09-26T19:22:55.870Z,99.90
2023-09-26T19:25:23.503Z,99.90
2023-09-26T19:27:51.135Z,99.90
2023-09-26T19:30:18.711Z,99.90
2023-09-26T19:32:46.314Z,99.90
2023-09-26T19:35:13.974Z,99.90
2023-09-26T19:37:41.540Z,99.90
2023-09-26T19:40:09.122Z,99.90
2023-09-26T19:42:36.854Z,99.90
2023-09-26T19:45:05.146Z,99.90
2023-09-26T19:47:32.865Z,99.90
2023-09-26T19:50:00.411Z,99.90
2023-09-26T19:52:27.954Z,99.90
2023-09-26T19:54:55.530Z,99.90
2023-09-26T19:57:23.172Z,99.90
2023-09-26T19:59:50.738Z,99.90
2023-09-26T20:02:18.341Z,99.90
2023-09-26T20:04:45.978Z,99.90
2023-09-26T20:07:13.564Z,99.90
2023-09-26T20:09:41.952Z,99.90
2023-09-26T20:12:10.318Z,99.90
2023-09-26T20:14:38.657Z,99.90
2023-09-26T20:17:06.299Z,99.90
2023-09-26T20:19:33.872Z,99.90
2023-09-26T20:22:01.439Z,99.90
2023-09-26T20:24:29.587Z,99.90
2023-09-26T20:26:57.226Z,99.90
2023-09-26T20:29:24.840Z,99.90
2023-09-26T20:31:53.895Z,99.90
2023-09-26T20:34:21.500Z,99.90
2023-09-26T20:36:49.087Z,99.90
2023-09-26T20:39:20.242Z,99.90
2023-09-26T20:41:48.610Z,99.90
2023-09-26T20:44:16.233Z,99.90
2023-09-26T20:46:43.787Z,99.90
2023-09-26T20:49:11.381Z,99.90
2023-09-26T20:51:38.965Z,99.90
2023-09-26T20:54:07.293Z,99.90
2023-09-26T20:56:34.971Z,99.90
2023-09-26T20:59:03.579Z,99.90
2023-09-26T21:01:31.885Z,99.90
2023-09-26T21:03:59.744Z,99.90
2023-09-26T21:06:27.252Z,99.90
2023-09-26T21:08:54.921Z,99.90
2023-09-26T21:11:23.582Z,99.90
2023-09-26T21:13:51.160Z,99.90
2023-09-26T21:16:18.781Z,99.90
2023-09-26T21:18:47.324Z,99.90
2023-09-26T21:21:17.678Z,99.90
2023-09-26T21:23:45.250Z,99.90
2023-09-26T21:26:12.997Z,99.90
2023-09-26T21:28:41.291Z,99.90
2023-09-26T21:31:09.100Z,99.90
2023-09-26T21:33:36.719Z,99.90
2023-09-26T21:36:07.494Z,99.90
2023-09-26T21:38:35.845Z,99.90
2023-09-26T21:41:03.495Z,99.90
2023-09-26T21:43:31.052Z,99.90
2023-09-26T21:45:58.633Z,99.90
2023-09-26T21:48:26.542Z,99.90
2023-09-26T21:50:54.049Z,99.90
2023-09-26T21:53:21.679Z,99.90
2023-09-26T21:55:49.391Z,99.90
2023-09-26T21:58:16.967Z,99.90
2023-09-26T22:00:45.324Z,99.90
2023-09-26T22:03:12.962Z,99.90
2023-09-26T22:05:40.506Z,99.90
2023-09-26T22:08:08.114Z,99.90
2023-09-26T22:10:35.767Z,99.90
2023-09-26T22:13:03.356Z,99.90
2023-09-26T22:15:31.946Z,99.90
2023-09-26T22:17:59.604Z,99.90
2023-09-26T22:20:27.945Z,99.90
2023-09-26T22:22:55.551Z,99.90
2023-09-26T22:25:23.517Z,99.90
2023-09-26T22:27:51.110Z,99.90
2023-09-26T22:30:18.744Z,99.90
2023-09-26T22:32:46.374Z,99.90
2023-09-26T22:35:13.949Z,99.90
2023-09-26T22:37:41.522Z,99.90
2023-09-26T22:40:10.045Z,99.90
2023-09-26T22:42:37.609Z,99.90
2023-09-26T22:45:05.173Z,99.90
2023-09-26T22:47:32.944Z,99.90
2023-09-26T22:50:00.531Z,99.90
2023-09-26T22:52:28.098Z,99.90
2023-09-26T22:54:57.890Z,99.90
2023-09-26T22:57:26.243Z,99.90
2023-09-26T22:59:53.830Z,99.90
2023-09-26T23:02:22.302Z,99.90
2023-09-26T23:04:50.582Z,99.90
2023-09-26T23:07:18.114Z,99.90
2023-09-26T23:09:45.967Z,99.90
2023-09-26T23:12:13.541Z,99.90
2023-09-26T23:14:41.127Z,99.90
2023-09-26T23:17:09.552Z,99.90
2023-09-26T23:19:37.104Z,99.90
2023-09-26T23:22:04.686Z,99.90
2023-09-26T23:24:32.340Z,99.90
2023-09-26T23:27:00.006Z,99.90
2023-09-26T23:29:27.618Z,99.90
2023-09-26T23:31:55.411Z,99.90
2023-09-26T23:34:24.006Z,99.90
2023-09-26T23:36:51.576Z,99.90
2023-09-26T23:39:19.646Z,99.90
2023-09-26T23:41:47.214Z,99.90
2023-09-26T23:44:14.890Z,99.90
2023-09-26T23:46:42.446Z,99.90
2023-09-26T23:49:10.027Z,99.90
2023-09-26T23:51:38.383Z,99.90
2023-09-26T23:54:06.783Z,99.90
2023-09-26T23:56:35.202Z,99.90
2023-09-26T23:59:02.831Z,99.90
